createdAt,value
2023-03-25T00:01:16.288Z,9.60
2023-03-25T00:03:46.408Z,9.30
2023-03-25T00:06:16.757Z,9.40
2023-03-25T00:08:44.783Z,9.30
2023-03-25T00:11:14.123Z,9.20
2023-03-25T00:13:42.143Z,9.20
2023-03-25T00:16:11.166Z,9.10
2023-03-25T00:18:40.051Z,8.90
2023-03-25T00:21:10.765Z,8.90
2023-03-25T00:23:40.298Z,8.80
2023-03-25T00:26:09.657Z,9.10
2023-03-25T00:28:39.825Z,8.90
2023-03-25T00:31:11.682Z,8.50
2023-03-25T00:33:45.120Z,8.20
2023-03-25T00:36:14.633Z,8.10
2023-03-25T00:38:43.634Z,8.30
2023-03-25T00:41:17.580Z,8.30
2023-03-25T00:43:46.940Z,8.20
2023-03-25T00:46:16.196Z,8.10
2023-03-25T00:48:44.706Z,8.00
2023-03-25T00:51:14.281Z,8.20
2023-03-25T00:53:42.541Z,8.10
2023-03-25T00:56:10.584Z,8.10
2023-03-25T00:58:38.786Z,8.00
2023-03-25T01:01:14.061Z,8.10
2023-03-25T01:03:44.066Z,8.00
2023-03-25T01:06:13.870Z,7.80
2023-03-25T01:08:43.120Z,7.80
2023-03-25T01:11:21.281Z,7.70
2023-03-25T01:13:49.391Z,7.80
2023-03-25T01:16:18.852Z,7.60
2023-03-25T01:18:46.854Z,7.50
2023-03-25T01:21:15.360Z,7.30
2023-03-25T01:23:43.509Z,7.20
2023-03-25T01:26:13.071Z,7.40
2023-03-25T01:28:41.832Z,7.40
2023-03-25T01:31:12.522Z,7.30
2023-03-25T01:33:42.184Z,7.50
2023-03-25T01:36:14.231Z,7.50
2023-03-25T01:38:43.436Z,7.60
2023-03-25T01:41:12.191Z,7.60
2023-03-25T01:43:40.368Z,7.70
2023-03-25T01:46:14.297Z,7.80
2023-03-25T01:48:46.465Z,7.90
2023-03-25T01:51:20.164Z,7.90
2023-03-25T01:53:48.955Z,7.90
2023-03-25T01:56:22.090Z,8.00
2023-03-25T01:58:52.932Z,8.20
2023-03-25T02:01:23.126Z,8.20
2023-03-25T02:04:02.988Z,8.20
2023-03-25T02:06:39.180Z,8.20
2023-03-25T02:09:08.989Z,8.10
2023-03-25T02:11:37.285Z,8.10
2023-03-25T02:14:10.695Z,8.40
2023-03-25T02:16:47.438Z,8.40
2023-03-25T02:20:30.054Z,8.30
2023-03-25T02:23:34.525Z,8.40
2023-03-25T02:26:42.530Z,8.30
2023-03-25T02:29:17.315Z,8.60
2023-03-25T02:32:06.612Z,8.70
2023-03-25T02:35:02.199Z,8.50
2023-03-25T02:37:58.338Z,8.70
2023-03-25T02:40:33.074Z,8.70
2023-03-25T02:43:07.106Z,8.70
2023-03-25T02:45:40.837Z,8.70
2023-03-25T02:48:16.112Z,8.90
2023-03-25T02:50:51.662Z,9.00
2023-03-25T02:53:27.359Z,8.80
2023-03-25T02:55:59.659Z,8.90
2023-03-25T02:58:29.856Z,9.20
2023-03-25T03:00:58.938Z,9.20
2023-03-25T03:03:28.548Z,9.30
2023-03-25T03:06:00.857Z,9.50
2023-03-25T03:08:48.094Z,9.50
2023-03-25T03:11:21.538Z,9.40
2023-03-25T03:14:17.388Z,9.30
2023-03-25T03:16:58.551Z,9.40
2023-03-25T03:19:38.967Z,9.40
2023-03-25T03:22:38.555Z,9.50
2023-03-25T03:25:20.360Z,9.60
2023-03-25T03:27:54.220Z,9.60
2023-03-25T03:30:32.409Z,9.40
2023-03-25T03:33:09.879Z,9.50
2023-03-25T03:35:43.348Z,9.40
2023-03-25T03:38:16.285Z,9.40
2023-03-25T03:40:49.532Z,9.30
2023-03-25T03:43:25.935Z,9.40
2023-03-25T03:46:00.100Z,9.50
2023-03-25T03:48:32.300Z,9.50
2023-03-25T03:51:07.852Z,9.50
2023-03-25T03:53:40.936Z,9.70
2023-03-25T03:56:14.660Z,9.60
2023-03-25T03:58:44.647Z,9.50
2023-03-25T04:01:17.446Z,9.40
2023-03-25T04:03:52.138Z,9.50
2023-03-25T04:06:25.984Z,9.50
2023-03-25T04:08:59.773Z,9.40
2023-03-25T04:11:38.281Z,9.50
2023-03-25T04:14:10.093Z,9.40
2023-03-25T04:16:38.318Z,9.30
2023-03-25T04:19:06.940Z,9.30
2023-03-25T04:21:35.015Z,9.40
2023-03-25T04:24:04.627Z,9.40
2023-03-25T04:26:37.586Z,9.60
2023-03-25T04:29:05.897Z,9.80
2023-03-25T04:31:34.180Z,9.60
2023-03-25T04:34:04.456Z,9.60
2023-03-25T04:36:33.640Z,9.40
2023-03-25T04:39:02.096Z,9.50
2023-03-25T04:41:31.976Z,9.60
2023-03-25T04:44:01.422Z,9.50
2023-03-25T04:46:29.478Z,9.70
2023-03-25T04:48:57.824Z,9.40
2023-03-25T04:51:25.837Z,9.50
2023-03-25T04:53:53.885Z,9.50
2023-03-25T04:56:23.420Z,9.40
2023-03-25T04:58:52.582Z,9.60
2023-03-25T05:01:30.799Z,9.70
2023-03-25T05:04:05.779Z,9.50
2023-03-25T05:06:34.988Z,9.50
2023-03-25T05:09:05.889Z,9.50
2023-03-25T05:11:36.952Z,9.40
2023-03-25T05:14:05.175Z,9.30
2023-03-25T05:16:35.704Z,9.30
2023-03-25T05:19:06.562Z,9.20
2023-03-25T05:21:37.438Z,9.20
2023-03-25T05:24:08.237Z,9.10
2023-03-25T05:26:36.967Z,9.00
2023-03-25T05:29:05.684Z,9.10
2023-03-25T05:31:35.239Z,9.20
2023-03-25T05:34:08.465Z,9.00
2023-03-25T05:36:37.224Z,8.90
2023-03-25T05:39:05.677Z,8.80
2023-03-25T05:41:39.077Z,8.70
2023-03-25T05:44:15.403Z,8.80
2023-03-25T05:46:44.966Z,8.90
2023-03-25T05:49:12.943Z,9.10
2023-03-25T05:51:42.026Z,9.00
2023-03-25T05:54:12.086Z,9.20
2023-03-25T05:56:41.393Z,9.20
2023-03-25T05:59:10.352Z,9.30
2023-03-25T06:01:38.667Z,9.00
2023-03-25T06:04:10.616Z,9.10
2023-03-25T06:06:40.002Z,9.00
2023-03-25T06:09:08.704Z,8.90
2023-03-25T06:11:38.977Z,9.00
2023-03-25T06:14:08.047Z,9.10
2023-03-25T06:16:36.551Z,9.00
2023-03-25T06:19:06.076Z,9.20
2023-03-25T06:21:35.916Z,9.20
2023-03-25T06:24:04.268Z,9.20
2023-03-25T06:26:33.216Z,9.30
2023-03-25T06:29:01.268Z,9.30
2023-03-25T06:31:33.220Z,9.30
2023-03-25T06:34:03.354Z,9.40
2023-03-25T06:36:35.180Z,9.20
2023-03-25T06:39:07.221Z,9.30
2023-03-25T06:41:36.127Z,9.10
2023-03-25T06:44:05.360Z,9.10
2023-03-25T06:46:35.297Z,9.10
2023-03-25T06:49:03.768Z,9.10
2023-03-25T06:51:31.922Z,9.20
2023-03-25T06:53:59.903Z,9.30
2023-03-25T06:56:29.205Z,9.40
2023-03-25T06:58:57.355Z,9.50
2023-03-25T07:01:25.621Z,9.60
2023-03-25T07:03:53.667Z,9.60
2023-03-25T07:06:23.456Z,10.00
2023-03-25T07:08:51.828Z,10.00
2023-03-25T07:11:26.319Z,10.00
2023-03-25T07:13:56.108Z,9.90
2023-03-25T07:16:24.772Z,9.90
2023-03-25T07:18:54.671Z,10.10
2023-03-25T07:21:22.695Z,10.10
2023-03-25T07:23:50.770Z,10.20
2023-03-25T07:26:19.275Z,10.20
2023-03-25T07:28:47.924Z,10.20
2023-03-25T07:31:17.978Z,10.60
2023-03-25T07:33:46.056Z,10.90
2023-03-25T07:36:14.810Z,10.80
2023-03-25T07:38:42.784Z,10.80
2023-03-25T07:41:13.717Z,11.00
2023-03-25T07:43:43.051Z,11.10
2023-03-25T07:46:11.136Z,10.90
2023-03-25T07:48:41.272Z,11.10
2023-03-25T07:51:10.046Z,11.30
2023-03-25T07:53:39.036Z,11.40
2023-03-25T07:56:09.005Z,11.50
2023-03-25T07:58:37.393Z,11.50
2023-03-25T08:01:06.093Z,11.50
2023-03-25T08:03:35.014Z,11.30
2023-03-25T08:06:04.901Z,11.10
2023-03-25T08:08:32.897Z,11.10
2023-03-25T08:11:01.619Z,11.20
2023-03-25T08:13:29.684Z,11.20
2023-03-25T08:15:58.035Z,11.20
2023-03-25T08:18:26.677Z,11.50
2023-03-25T08:20:54.662Z,11.50
2023-03-25T08:23:26.598Z,11.70
2023-03-25T08:25:55.725Z,12.00
2023-03-25T08:28:24.622Z,12.30
2023-03-25T08:30:54.792Z,12.30
2023-03-25T08:33:27.282Z,12.30
2023-03-25T08:35:59.005Z,12.10
2023-03-25T08:38:33.875Z,12.10
2023-03-25T08:41:02.950Z,12.10
2023-03-25T08:43:31.001Z,12.20
2023-03-25T08:45:59.036Z,11.80
2023-03-25T08:48:27.118Z,12.20
2023-03-25T08:50:55.155Z,12.10
2023-03-25T08:53:23.169Z,12.10
2023-03-25T08:55:54.307Z,12.00
2023-03-25T08:58:22.740Z,12.00
2023-03-25T09:00:54.380Z,12.00
2023-03-25T09:03:23.826Z,12.30
2023-03-25T09:05:52.192Z,12.40
2023-03-25T09:08:21.377Z,12.70
2023-03-25T09:10:49.435Z,12.60
2023-03-25T09:13:18.705Z,12.70
2023-03-25T09:15:47.179Z,12.60
2023-03-25T09:18:15.462Z,12.50
2023-03-25T09:20:47.526Z,12.10
2023-03-25T09:23:15.673Z,11.80
2023-03-25T09:25:44.227Z,11.40
2023-03-25T09:28:12.213Z,11.20
2023-03-25T09:30:41.807Z,10.10
2023-03-25T09:33:09.873Z,9.80
2023-03-25T09:35:38.045Z,9.60
2023-03-25T09:38:06.445Z,9.40
2023-03-25T09:40:35.857Z,9.40
2023-03-25T09:43:26.379Z,9.60
2023-03-25T09:45:56.998Z,10.20
2023-03-25T09:48:32.219Z,10.80
2023-03-25T09:51:04.895Z,11.20
2023-03-25T09:53:39.652Z,11.10
2023-03-25T09:56:15.394Z,10.50
2023-03-25T09:58:47.755Z,10.60
2023-03-25T10:01:37.766Z,10.30
2023-03-25T10:04:31.873Z,11.70
2023-03-25T10:07:13.587Z,13.20
2023-03-25T10:09:51.795Z,14.40
2023-03-25T10:12:34.532Z,14.90
2023-03-25T10:15:18.586Z,15.70
2023-03-25T10:18:02.443Z,16.60
2023-03-25T10:20:46.677Z,17.30
2023-03-25T10:23:23.504Z,17.10
2023-03-25T10:25:57.450Z,16.40
2023-03-25T10:28:33.109Z,15.60
2023-03-25T10:31:01.840Z,15.10
2023-03-25T10:33:37.508Z,14.90
2023-03-25T10:36:13.284Z,14.60
2023-03-25T10:38:43.693Z,14.60
2023-03-25T10:41:21.469Z,15.30
2023-03-25T10:43:49.494Z,16.10
2023-03-25T10:46:27.493Z,15.90
2023-03-25T10:48:57.243Z,15.80
2023-03-25T10:51:29.358Z,15.30
2023-03-25T10:53:59.353Z,15.70
2023-03-25T10:56:31.348Z,15.00
2023-03-25T10:59:03.428Z,15.30
2023-03-25T11:01:38.164Z,15.60
2023-03-25T11:04:11.011Z,15.80
2023-03-25T11:06:42.085Z,15.70
2023-03-25T11:09:18.158Z,15.50
2023-03-25T11:11:48.012Z,15.60
2023-03-25T11:14:17.586Z,15.60
2023-03-25T11:16:49.389Z,15.30
2023-03-25T11:19:25.440Z,16.10
2023-03-25T11:21:56.943Z,16.30
2023-03-25T11:24:32.684Z,17.20
2023-03-25T11:27:02.116Z,17.40
2023-03-25T11:29:32.920Z,17.00
2023-03-25T11:32:09.257Z,16.80
2023-03-25T11:34:42.135Z,16.60
2023-03-25T11:37:19.211Z,16.50
2023-03-25T11:39:55.056Z,15.60
2023-03-25T11:42:33.688Z,15.50
2023-03-25T11:45:03.460Z,15.90
2023-03-25T11:47:34.144Z,16.20
2023-03-25T11:50:08.172Z,16.10
2023-03-25T11:52:42.607Z,16.00
2023-03-25T11:55:19.175Z,15.80
2023-03-25T11:57:48.839Z,15.40
2023-03-25T12:00:34.095Z,15.10
2023-03-25T12:03:05.192Z,15.00
2023-03-25T12:05:35.301Z,14.80
2023-03-25T12:08:15.301Z,14.20
2023-03-25T12:10:54.494Z,13.90
2023-03-25T12:13:44.232Z,14.10
2023-03-25T12:16:24.438Z,14.30
2023-03-25T12:19:10.580Z,14.30
2023-03-25T12:21:59.635Z,14.40
2023-03-25T12:24:45.362Z,14.50
2023-03-25T12:27:31.049Z,14.50
2023-03-25T12:30:10.881Z,14.50
2023-03-25T12:32:47.578Z,14.40
2023-03-25T12:35:30.869Z,14.20
2023-03-25T12:38:17.047Z,14.30
2023-03-25T12:41:06.003Z,14.70
2023-03-25T12:43:51.524Z,14.70
2023-03-25T12:46:37.438Z,14.20
2023-03-25T12:49:26.370Z,14.10
2023-03-25T12:52:02.286Z,14.10
2023-03-25T12:54:46.947Z,13.50
2023-03-25T12:57:29.725Z,13.60
2023-03-25T13:00:16.038Z,13.60
2023-03-25T13:03:25.582Z,13.60
2023-03-25T13:06:00.835Z,13.60
2023-03-25T13:08:35.636Z,13.40
2023-03-25T13:11:13.759Z,13.50
2023-03-25T13:13:46.215Z,13.40
2023-03-25T13:16:18.234Z,13.40
2023-03-25T13:18:50.810Z,13.30
2023-03-25T13:21:24.136Z,13.50
2023-03-25T13:23:59.273Z,13.50
2023-03-25T13:26:31.948Z,13.50
2023-03-25T13:29:03.728Z,13.70
2023-03-25T13:31:36.192Z,13.90
2023-03-25T13:34:20.601Z,13.90
2023-03-25T13:37:03.619Z,14.00
2023-03-25T13:39:51.852Z,14.10
2023-03-25T13:42:27.595Z,14.00
2023-03-25T13:44:58.317Z,14.00
2023-03-25T13:47:32.689Z,14.20
2023-03-25T13:50:05.556Z,14.10
2023-03-25T13:52:40.137Z,14.10
2023-03-25T13:55:15.134Z,14.00
2023-03-25T13:58:14.909Z,14.00
2023-03-25T14:01:26.471Z,14.10
2023-03-25T14:04:49.910Z,14.00
2023-03-25T14:07:48.789Z,14.20
2023-03-25T14:10:54.767Z,14.30
2023-03-25T14:13:29.108Z,14.20
2023-03-25T14:16:04.339Z,14.20
2023-03-25T14:18:32.884Z,14.10
2023-03-25T14:21:16.688Z,14.10
2023-03-25T14:23:44.997Z,14.20
2023-03-25T14:26:13.681Z,14.10
2023-03-25T14:28:47.722Z,14.30
2023-03-25T14:31:31.723Z,14.40
2023-03-25T14:34:34.733Z,14.50
2023-03-25T14:37:30.939Z,14.60
2023-03-25T14:40:22.502Z,14.60
2023-03-25T14:43:00.289Z,14.60
2023-03-25T14:45:52.204Z,14.80
2023-03-25T14:48:34.396Z,14.70
2023-03-25T14:51:42.920Z,14.40
2023-03-25T14:54:21.804Z,14.10
2023-03-25T14:57:01.665Z,14.20
2023-03-25T14:59:33.740Z,14.30
2023-03-25T15:02:09.812Z,14.40
2023-03-25T15:04:39.820Z,14.00
2023-03-25T15:07:16.155Z,13.90
2023-03-25T15:09:53.647Z,13.90
2023-03-25T15:12:26.121Z,14.00
2023-03-25T15:14:58.229Z,14.10
2023-03-25T15:17:49.123Z,14.00
2023-03-25T15:20:36.024Z,14.10
2023-03-25T15:23:33.240Z,14.10
2023-03-25T15:26:04.845Z,13.90
2023-03-25T15:28:50.054Z,14.10
2023-03-25T15:31:38.501Z,14.20
2023-03-25T15:34:47.148Z,14.20
2023-03-25T15:37:49.716Z,14.20
2023-03-25T15:40:32.129Z,14.10
2023-03-25T15:43:59.544Z,13.70
2023-03-25T15:47:02.431Z,13.50
2023-03-25T15:50:17.069Z,13.70
2023-03-25T15:53:04.996Z,13.70
2023-03-25T15:55:38.225Z,13.50
2023-03-25T15:58:14.018Z,13.50
2023-03-25T16:00:47.185Z,13.50
2023-03-25T16:03:18.832Z,13.50
2023-03-25T16:05:52.361Z,13.60
2023-03-25T16:08:26.697Z,13.60
2023-03-25T16:10:55.389Z,13.70
2023-03-25T16:13:24.582Z,13.50
2023-03-25T16:16:01.049Z,13.30
2023-03-25T16:18:35.661Z,13.20
2023-03-25T16:21:05.753Z,13.20
2023-03-25T16:23:33.805Z,13.20
2023-03-25T16:26:01.811Z,13.20
2023-03-25T16:28:34.141Z,13.10
2023-03-25T16:31:03.637Z,13.20
2023-03-25T16:33:38.418Z,13.30
2023-03-25T16:36:15.754Z,13.20
2023-03-25T16:38:44.966Z,13.00
2023-03-25T16:41:14.592Z,13.10
2023-03-25T16:43:43.536Z,13.10
2023-03-25T16:46:15.868Z,12.90
2023-03-25T16:48:51.707Z,12.70
2023-03-25T16:51:24.661Z,12.90
2023-03-25T16:53:55.899Z,12.80
2023-03-25T16:56:29.210Z,13.00
2023-03-25T16:59:02.651Z,13.10
2023-03-25T17:01:38.178Z,13.00
2023-03-25T17:04:13.454Z,13.00
2023-03-25T17:06:45.413Z,12.90
2023-03-25T17:09:19.316Z,12.70
2023-03-25T17:11:48.346Z,12.70
2023-03-25T17:14:20.519Z,12.70
2023-03-25T17:16:50.931Z,13.00
2023-03-25T17:19:20.811Z,12.70
2023-03-25T17:22:17.023Z,12.50
2023-03-25T17:24:54.944Z,12.50
2023-03-25T17:27:29.167Z,12.50
2023-03-25T17:30:00.626Z,12.50
2023-03-25T17:32:28.674Z,12.40
2023-03-25T17:35:00.972Z,12.40
2023-03-25T17:37:32.087Z,12.50
2023-03-25T17:40:11.538Z,12.20
2023-03-25T17:42:41.490Z,12.10
2023-03-25T17:45:15.874Z,12.10
2023-03-25T17:47:44.328Z,12.10
2023-03-25T17:50:16.865Z,12.00
2023-03-25T17:52:46.343Z,12.00
2023-03-25T17:55:14.869Z,11.90
2023-03-25T17:57:43.487Z,11.90
2023-03-25T18:00:18.351Z,11.90
2023-03-25T18:02:46.651Z,11.90
2023-03-25T18:05:15.432Z,11.50
2023-03-25T18:07:44.884Z,11.30
2023-03-25T18:10:18.264Z,11.30
2023-03-25T18:12:46.968Z,11.30
2023-03-25T18:15:15.056Z,11.10
2023-03-25T18:17:43.511Z,11.20
2023-03-25T18:20:18.390Z,11.20
2023-03-25T18:22:47.991Z,11.00
2023-03-25T18:25:16.124Z,10.90
2023-03-25T18:27:45.585Z,10.90
2023-03-25T18:30:21.514Z,11.10
2023-03-25T18:32:49.985Z,11.20
2023-03-25T18:35:18.698Z,11.30
2023-03-25T18:37:48.753Z,11.40
2023-03-25T18:40:21.072Z,11.20
2023-03-25T18:42:49.130Z,11.20
2023-03-25T18:45:17.393Z,11.20
2023-03-25T18:47:45.737Z,11.20
2023-03-25T18:50:20.107Z,11.30
2023-03-25T18:52:49.477Z,11.10
2023-03-25T18:55:17.696Z,10.90
2023-03-25T18:57:46.523Z,10.90
2023-03-25T19:00:23.933Z,10.50
2023-03-25T19:02:52.868Z,10.60
2023-03-25T19:05:22.351Z,10.50
2023-03-25T19:07:52.072Z,10.80
2023-03-25T19:10:23.751Z,10.80
2023-03-25T19:12:52.284Z,10.70
2023-03-25T19:15:24.839Z,10.80
2023-03-25T19:17:53.075Z,10.60
2023-03-25T19:20:24.188Z,10.60
2023-03-25T19:22:54.188Z,10.50
2023-03-25T19:25:22.644Z,10.50
2023-03-25T19:27:50.799Z,10.40
2023-03-25T19:30:21.704Z,10.40
2023-03-25T19:32:53.850Z,10.50
2023-03-25T19:35:23.648Z,10.60
2023-03-25T19:37:56.060Z,10.70
2023-03-25T19:40:26.561Z,10.50
2023-03-25T19:42:58.324Z,10.50
2023-03-25T19:45:28.457Z,10.40
2023-03-25T19:47:56.853Z,10.70
2023-03-25T19:50:29.209Z,10.70
2023-03-25T19:53:00.693Z,10.50
2023-03-25T19:55:32.830Z,10.50
2023-03-25T19:58:02.709Z,10.50
2023-03-25T20:00:31.796Z,10.50
2023-03-25T20:03:01.824Z,10.40
2023-03-25T20:05:33.274Z,10.50
2023-03-25T20:08:02.899Z,10.40
2023-03-25T20:10:33.579Z,10.40
2023-03-25T20:13:08.251Z,10.40
2023-03-25T20:15:45.966Z,10.40
2023-03-25T20:18:22.942Z,10.30
2023-03-25T20:20:51.334Z,10.30
2023-03-25T20:23:20.806Z,10.40
2023-03-25T20:25:56.009Z,10.40
2023-03-25T20:28:29.523Z,10.60
2023-03-25T20:31:04.221Z,10.40
2023-03-25T20:33:34.070Z,10.30
2023-03-25T20:36:07.408Z,10.30
2023-03-25T20:38:42.014Z,10.10
2023-03-25T20:41:15.142Z,10.20
2023-03-25T20:43:44.231Z,10.20
2023-03-25T20:46:17.149Z,10.20
2023-03-25T20:48:47.105Z,10.30
2023-03-25T20:51:15.404Z,10.30
2023-03-25T20:53:45.012Z,10.30
2023-03-25T20:56:13.314Z,10.40
2023-03-25T20:58:43.823Z,10.50
2023-03-25T21:01:15.648Z,10.40
2023-03-25T21:03:46.040Z,10.30
2023-03-25T21:06:24.330Z,10.40
2023-03-25T21:08:55.838Z,10.30
2023-03-25T21:11:24.642Z,10.20
2023-03-25T21:13:53.420Z,10.20
2023-03-25T21:16:21.907Z,10.10
2023-03-25T21:18:50.477Z,10.10
2023-03-25T21:21:20.157Z,9.80
2023-03-25T21:23:49.518Z,9.90
2023-03-25T21:26:19.583Z,9.90
2023-03-25T21:28:48.717Z,10.00
2023-03-25T21:31:22.348Z,9.90
2023-03-25T21:33:52.797Z,9.70
2023-03-25T21:36:24.877Z,9.80
2023-03-25T21:38:58.279Z,9.70
2023-03-25T21:41:30.203Z,9.60
2023-03-25T21:43:58.343Z,9.50
2023-03-25T21:46:27.286Z,9.50
2023-03-25T21:48:58.369Z,9.40
2023-03-25T21:51:30.257Z,9.10
2023-03-25T21:54:01.112Z,9.10
2023-03-25T21:56:35.509Z,8.90
2023-03-25T21:59:07.128Z,8.80
2023-03-25T22:01:36.038Z,8.70
2023-03-25T22:04:04.336Z,8.70
2023-03-25T22:06:35.608Z,8.60
2023-03-25T22:09:06.109Z,8.50
2023-03-25T22:11:38.103Z,8.70
2023-03-25T22:14:07.955Z,8.50
2023-03-25T22:16:36.388Z,8.40
2023-03-25T22:19:05.286Z,8.40
2023-03-25T22:21:37.269Z,8.20
2023-03-25T22:24:08.107Z,8.30
2023-03-25T22:26:39.761Z,8.40
2023-03-25T22:29:10.352Z,8.20
2023-03-25T22:31:41.279Z,8.00
2023-03-25T22:34:12.271Z,8.10
2023-03-25T22:36:43.034Z,7.90
2023-03-25T22:39:12.349Z,8.10
2023-03-25T22:41:42.345Z,8.30
2023-03-25T22:44:11.282Z,8.20
2023-03-25T22:46:40.543Z,8.00
2023-03-25T22:49:08.947Z,8.00
2023-03-25T22:51:36.958Z,8.20
2023-03-25T22:54:06.527Z,8.10
2023-03-25T22:56:34.663Z,7.80
2023-03-25T22:59:06.729Z,7.80
2023-03-25T23:01:35.917Z,7.70
2023-03-25T23:04:04.580Z,7.40
2023-03-25T23:06:35.446Z,7.50
2023-03-25T23:09:06.577Z,7.40
2023-03-25T23:11:35.847Z,7.30
2023-03-25T23:14:12.002Z,7.40
2023-03-25T23:16:41.593Z,7.40
2023-03-25T23:19:10.610Z,7.40
2023-03-25T23:21:39.114Z,7.30
2023-03-25T23:24:08.290Z,7.40
2023-03-25T23:26:39.377Z,7.40
2023-03-25T23:29:12.662Z,7.30
2023-03-25T23:31:44.003Z,7.40
2023-03-25T23:34:16.649Z,7.70
2023-03-25T23:36:46.629Z,7.70
2023-03-25T23:39:17.101Z,7.60
2023-03-25T23:41:45.566Z,7.40
2023-03-25T23:44:14.983Z,7.50
2023-03-25T23:46:43.935Z,7.40
2023-03-25T23:49:12.200Z,7.30
2023-03-25T23:51:42.429Z,7.40
2023-03-25T23:54:13.379Z,7.40
2023-03-25T23:56:42.388Z,7.50
2023-03-25T23:59:11.580Z,7.30
